Accedi per prenotare

Caricamento...

Situazione Metar e Taf aeroporto Pisa - Effemeridi Aeroporto Lucca

[Source: ADDS]
METAR
LIRP 181815Z 33003KT CAVOK 08/06 Q1032 NOSIG =
LIRP 181700Z 1818/1918 11006KT CAVOK TEMPO 1822/1906 5000 BR NSC
TAF
LIRP 181700Z 1818/1918 11006KT CAVOK TEMPO 1822/1906 5000 BR NSC =
SR / SS: 06:46 / 16:14 UTC (Effemeridi LIQL 2022-01-18)